Latest Weather Observations for Hughenden

IDQ60801

Issued at 8:31 am EST Thursday 7 May 2015 (issued every 30 minutes, with the page automatically refreshed every 10 minutes)

About weather observations | Map of weather stations | Latest weather observations for QLD | Other Formats
Station Details ID: 030022 Name: HUGHENDEN AIRPORT Lat: -20.82 Lon: 144.23 Height: 316.4 m
Data from the previous 72 hours. | See also: Recent months at Hughenden
Date/Time
EST
Temp
°C
App
Temp
°C
Dew
Point
Rel
Hum
%
Delta-T
°C
Wind Press
QNH
hPa
Press
MSL
hPa
Rain
since 9 am
mm
Dir
 
Spd
km/h
Gust
km/h
Spd
kts
Gust
kts
07/08:30am 19.7 15.9 -0.9 25 9.0 S 9 11 5 6 1019.0 1017.8 0.0
07/08:00am 17.9 14.0 -1.3 27 8.2 S 9 13 5 7 1018.6 1017.4 0.0
07/07:30am 16.3 13.8 -1.3 30 7.4 S 2 7 1 4 1018.5 1017.3 0.0
07/07:00am 14.3 10.8 -1.3 34 6.5 S 7 9 4 5 1017.9 1016.7 0.0
07/06:30am 13.7 10.4 -1.5 35 6.2 SSE 6 7 3 4 1017.5 1016.3 0.0
07/06:00am 14.5 10.2 -1.6 33 6.6 SW 11 13 6 7 1017.0 1015.8 0.0
07/05:30am 15.6 12.4 -0.6 33 6.9 SSW 6 9 3 5 1016.5 1015.4 0.0
07/05:00am 14.9 12.4 -1.2 33 6.7 W 2 7 1 4 1016.2 1015.0 0.0
07/04:00am 17.1 13.6 -1.1 29 7.8 SSE 7 11 4 6 1015.9 1014.7 0.0
07/03:00am 19.3 14.0 -0.7 26 8.8 SSE 17 22 9 12 1015.6 1014.4 0.0
07/02:30am 20.1 14.3 0.0 26 9.0 S 20 28 11 15 1015.6 1014.4 0.0
07/02:00am 20.7 14.2 0.5 26 9.2 SSE 24 32 13 17 1015.6 1014.4 0.0
07/01:30am 21.1 15.0 0.3 25 9.5 SSE 22 30 12 16 1015.8 1014.6 0.0
07/01:00am 21.8 14.6 0.9 25 9.7 S 28 37 15 20 1015.7 1014.5 0.0
07/12:30am 22.1 15.4 1.2 25 9.8 S 26 37 14 20 1016.0 1014.8 0.0
 
Date/Time
EST
Temp
°C
App
Temp
°C
Dew
Point
Rel
Hum
%
Delta-T
°C
Wind Press
QNH
hPa
Press
MSL
hPa
Rain
since 9 am
mm
Dir
 
Spd
km/h
Gust
km/h
Spd
kts
Gust
kts
06/11:30pm 23.0 17.1 1.4 24 10.2 S 22 32 12 17 1016.3 1015.2 0.0
06/11:00pm 23.6 18.0 1.3 23 10.6 S 20 26 11 14 1016.4 1015.3 0.0
06/10:30pm 23.5 18.8 1.2 23 10.5 S 15 20 8 11 1016.2 1015.0 0.0
06/10:00pm 24.0 19.4 1.6 23 10.7 S 15 20 8 11 1016.2 1015.0 0.0
06/09:30pm 24.2 20.0 1.8 23 10.8 S 13 17 7 9 1016.2 1015.0 0.0
06/09:00pm 24.9 20.3 1.7 22 11.2 S 15 19 8 10 1016.0 1014.8 0.0
06/08:30pm 24.6 20.5 2.1 23 10.9 S 13 15 7 8 1015.9 1014.7 0.0
06/08:00pm 24.8 21.0 1.7 22 11.1 S 11 13 6 7 1015.6 1014.4 0.0
06/07:30pm 26.2 22.0 1.5 20 12.0 S 13 17 7 9 1015.2 1014.0 0.0
06/07:00pm 27.8 23.5 1.3 18 12.9 SSE 13 15 7 8 1014.6 1013.4 0.0
06/06:30pm 29.2 24.6 1.7 17 13.7 SSE 15 20 8 11 1014.1 1012.9 0.0
06/06:00pm 30.3 25.4 1.7 16 14.3 SSE 17 26 9 14 1013.9 1012.7 0.0
06/05:30pm 31.6 26.0 0.9 14 15.3 SSE 20 26 11 14 1013.5 1012.2 0.0
06/05:00pm 32.4 26.5 1.5 14 15.6 SSE 22 32 12 17 1013.1 1011.9 0.0
06/04:30pm 33.4 27.8 1.3 13 16.3 SSE 20 32 11 17 1012.9 1011.7 0.0
06/04:00pm 33.2 27.6 1.1 13 16.2 S 20 30 11 16 1012.9 1011.7 0.0
06/03:30pm 33.0 27.4 0.9 13 16.1 S 20 32 11 17 1013.0 1011.8 0.0
06/03:00pm 33.4 27.1 1.3 13 16.3 S 24 33 13 18 1013.2 1012.0 0.0
06/02:30pm 34.0 29.2 2.8 14 16.2 S 17 28 9 15 1013.6 1012.3 0.0
06/02:00pm 33.2 29.8 2.1 14 15.9 S 9 22 5 12 1014.0 1012.8 0.0
06/01:30pm 32.9 28.9 2.9 15 15.5 SE 13 24 7 13 1014.3 1013.1 0.0
06/01:00pm 32.5 28.2 3.5 16 15.1 S 15 20 8 11 1014.7 1013.5 0.0
06/12:30pm 31.9 27.9 3.0 16 14.9 S 13 26 7 14 1015.1 1013.9 0.0
06/12:00pm 31.4 28.0 4.2 18 14.3 S 11 22 6 12 1015.5 1014.3 0.0
06/11:30am 30.4 27.5 4.9 20 13.5 SW 9 15 5 8 1015.9 1014.7 0.0
06/11:00am 29.3 26.4 4.7 21 12.9 S 9 15 5 8 1016.3 1015.2 0.0
06/10:30am 28.6 25.7 4.8 22 12.4 SSW 9 15 5 8 1016.6 1015.5 0.0
06/10:00am 27.3 23.8 3.7 22 12.0 S 11 15 6 8 1016.8 1015.6 0.0
06/09:30am 26.7 22.4 3.2 22 11.8 S 15 19 8 10 1016.5 1015.4 0.0
06/09:00am 25.1 20.7 2.5 23 11.1 S 15 19 8 10 1016.2 1015.0 0.0
06/08:30am 22.9 18.1 2.4 26 9.9 S 17 20 9 11 1016.1 1014.9 0.0
06/08:00am 20.9 16.9 2.7 30 8.7 SSE 13 17 7 9 1015.8 1014.6 0.0
06/07:30am 17.5 14.4 3.8 40 6.5 SSE 9 13 5 7 1015.7 1014.5 0.0
06/07:00am 14.5 11.2 2.4 44 5.5 SSE 9 11 5 6 1015.2 1014.0 0.0
06/06:30am 14.1 10.8 2.7 46 5.2 S 9 11 5 6 1014.7 1013.5 0.0
06/06:00am 14.9 12.1 2.1 42 5.8 NE 6 9 3 5 1014.1 1012.9 0.0
06/05:30am 15.9 12.4 3.7 44 5.7 NE 11 13 6 7 1013.8 1012.6 0.0
06/05:00am 13.9 12.3 2.2 45 5.2 CALM 0 4 0 2 1013.5 1012.2 0.0
06/04:30am 14.0 12.2 1.3 42 5.6 CALM 0 0 0 0 1013.2 1012.0 0.0
06/04:00am 14.8 12.4 2.4 43 5.6 E 4 7 2 4 1013.2 1012.0 0.0
06/03:30am 14.8 13.1 1.7 41 5.8 CALM 0 0 0 0 1013.2 1012.0 0.0
06/03:00am 15.4 13.7 1.9 40 6.1 CALM 0 0 0 0 1013.2 1012.0 0.0
06/02:30am 16.1 14.5 2.5 40 6.2 CALM 0 0 0 0 1013.2 1012.0 0.0
06/02:00am 15.7 13.9 1.4 38 6.4 CALM 0 0 0 0 1013.1 1011.9 0.0
06/01:30am 17.5 14.4 1.1 33 7.4 NE 7 9 4 5 1013.3 1012.1 0.0
06/01:00am 18.8 15.5 2.2 33 7.7 NE 9 11 5 6 1013.7 1012.5 0.0
06/12:30am 19.3 15.6 2.6 33 7.9 NNE 11 13 6 7 1013.7 1012.5 0.0
06/12:00am 18.1 14.1 2.8 36 7.2 SE 13 15 7 8 1013.6 1012.3 0.0
 
Date/Time
EST
Temp
°C
App
Temp
°C
Dew
Point
Rel
Hum
%
Delta-T
°C
Wind Press
QNH
hPa
Press
MSL
hPa
Rain
since 9 am
mm
Dir
 
Spd
km/h
Gust
km/h
Spd
kts
Gust
kts
05/11:30pm 19.3 16.0 2.6 33 7.9 SSE 9 11 5 6 1013.5 1012.2 0.0
05/11:00pm 20.1 16.8 2.5 31 8.3 SSE 9 9 5 5 1013.5 1012.2 0.0
05/10:30pm 19.8 16.1 2.2 31 8.2 SSE 11 11 6 6 1013.3 1012.1 0.0
05/10:00pm 19.9 16.1 1.8 30 8.4 SSE 11 11 6 6 1013.3 1012.1 0.0
05/09:30pm 20.9 17.6 2.7 30 8.7 SSE 9 11 5 6 1013.1 1011.9 0.0
05/09:00pm 21.1 17.7 1.9 28 9.0 SE 9 11 5 6 1013.0 1011.8 0.0
05/08:30pm 21.9 18.4 1.5 26 9.6 SE 9 9 5 5 1012.7 1011.5 0.0
05/08:00pm 24.0 21.0 2.2 24 10.5 SE 7 7 4 4 1012.3 1011.1 0.0
05/07:30pm 24.8 21.1 2.3 23 11.0 SSE 11 11 6 6 1011.9 1010.7 0.0
05/07:00pm 26.6 23.3 2.5 21 11.9 SSE 9 11 5 6 1011.5 1010.3 0.0
05/06:30pm 27.7 23.9 2.0 19 12.7 SSE 11 13 6 7 1011.1 1009.9 0.0
05/06:00pm 30.1 25.9 1.5 16 14.2 SSE 13 17 7 9 1010.8 1009.5 0.0
05/05:30pm 31.6 26.9 0.9 14 15.3 SE 15 20 8 11 1010.5 1009.2 0.0
05/05:00pm 32.4 26.9 0.5 13 15.9 SSE 19 24 10 13 1010.5 1009.2 0.0
05/04:30pm 33.3 28.3 1.2 13 16.2 SSE 17 22 9 12 1010.3 1009.0 0.0
05/04:00pm 33.3 28.1 0.1 12 16.5 SSE 17 24 9 13 1010.4 1009.1 0.0
05/03:30pm 33.5 28.3 0.2 12 16.6 ESE 17 24 9 13 1010.4 1009.1 0.0
05/03:00pm 33.4 28.6 0.1 12 16.6 SSE 15 28 8 15 1010.6 1009.3 0.0
05/02:30pm 33.2 29.7 1.1 13 16.2 SE 9 20 5 11 1010.9 1009.7 0.0
05/02:00pm 32.8 28.6 1.8 14 15.8 ENE 13 24 7 13 1011.0 1009.8 0.0
05/01:30pm 33.0 29.2 2.0 14 15.8 SSE 11 19 6 10 1011.3 1010.1 0.0
05/01:00pm 32.3 28.0 3.3 16 15.1 ESE 15 24 8 13 1011.7 1010.5 0.0
05/12:30pm 31.7 28.1 2.8 16 14.8 E 11 20 6 11 1012.3 1011.1 0.0
05/12:00pm 32.0 28.0 4.7 18 14.5 ESE 15 22 8 12 1012.8 1011.6 0.0
05/11:30am 31.7 28.3 6.0 20 13.9 NNE 13 30 7 16 1013.2 1012.0 0.0
05/11:00am 30.8 28.0 5.3 20 13.6 ESE 9 20 5 11 1014.0 1012.8 0.0
05/10:30am 29.7 26.3 7.6 25 12.2 E 15 20 8 11 1014.2 1013.0 0.0
05/10:00am 28.7 25.7 9.4 30 10.9 NE 15 20 8 11 1014.3 1013.1 0.0
05/09:30am 26.7 25.0 11.2 38 8.9 ENE 11 15 6 8 1014.5 1013.3 0.0
05/09:00am 24.8 23.0 11.0 42 7.8 NE 11 13 6 7 1014.4 1013.2 0.0
05/08:30am 23.2 22.0 10.3 44 7.2 ENE 7 11 4 6 1014.2 1013.0 0.0
05/08:00am 19.8 18.0 7.2 44 6.5 ESE 6 7 3 4 1014.1 1012.9 0.0
05/07:30am 16.8 15.1 5.7 48 5.5 ESE 4 6 2 3 1013.9 1012.7 0.0
05/07:00am 13.4 10.6 2.9 49 4.7 SE 7 7 4 4 1013.6 1012.3 0.0
05/06:30am 13.2 10.6 3.3 51 4.5 SE 6 7 3 4 1013.3 1012.1 0.0
05/06:00am 13.9 10.9 3.9 51 4.6 ENE 9 9 5 5 1013.2 1012.0 0.0
05/05:30am 13.2 10.2 1.8 46 5.0 E 7 9 4 5 1013.3 1012.1 0.0
05/05:00am 14.3 11.2 3.7 49 4.9 NE 9 11 5 6 1013.3 1012.1 0.0
05/04:30am 13.5 11.9 2.7 48 4.9 CALM 0 0 0 0 1013.2 1012.0 0.0
05/04:00am 14.6 13.1 3.1 46 5.3 CALM 0 0 0 0 1013.2 1012.0 0.0
05/03:30am 14.8 13.1 2.0 42 5.7 CALM 0 0 0 0 1013.1 1011.9 0.0
05/03:00am 14.3 12.6 1.9 43 5.5 CALM 0 0 0 0 1013.2 1012.0 0.0
05/02:30am 15.0 13.4 2.2 42 5.8 CALM 0 0 0 0 1013.1 1011.9 0.0
05/02:00am 15.3 13.8 3.1 44 5.6 CALM 0 0 0 0 1013.5 1012.2 0.0
05/01:30am 15.9 14.3 2.7 41 6.1 CALM 0 0 0 0 1013.6 1012.3 0.0
05/01:00am 16.3 13.6 2.7 40 6.3 SSE 6 7 3 4 1013.7 1012.5 0.0
05/12:30am 17.3 15.8 2.9 38 6.7 CALM 0 0 0 0 1013.7 1012.5 0.0
05/12:00am 17.7 15.7 2.5 36 7.0 NNE 2 9 1 5 1013.9 1012.7 0.0
 
Date/Time
EST
Temp
°C
App
Temp
°C
Dew
Point
Rel
Hum
%
Delta-T
°C
Wind Press
QNH
hPa
Press
MSL
hPa
Rain
since 9 am
mm
Dir
 
Spd
km/h
Gust
km/h
Spd
kts
Gust
kts
04/11:30pm 19.0 17.5 3.2 35 7.5 CALM 0 0 0 0 1013.8 1012.6 0.0
04/11:00pm 20.6 17.8 3.3 32 8.3 SE 7 9 4 5 1013.7 1012.5 0.0
04/10:30pm 21.1 17.9 3.3 31 8.6 SE 9 11 5 6 1013.8 1012.6 0.0
04/10:00pm 21.1 17.5 2.9 30 8.7 SE 11 13 6 7 1013.8 1012.6 0.0
04/09:30pm 21.4 17.8 3.1 30 8.8 SE 11 13 6 7 1013.8 1012.6 0.0
04/09:00pm 21.3 17.6 2.6 29 8.9 SE 11 13 6 7 1013.7 1012.5 0.0
04/08:30pm 22.8 19.6 2.8 27 9.7 SE 9 11 5 6 1013.6 1012.3 0.0
04/08:00pm 23.4 19.8 2.8 26 10.0 SSE 11 13 6 7 1013.0 1011.8 0.0
04/07:30pm 24.0 20.0 2.8 25 10.4 SSE 13 15 7 8 1012.7 1011.5 0.0
04/07:00pm 24.6 20.7 3.3 25 10.6 S 13 15 7 8 1012.3 1011.1 0.0
04/06:30pm 27.2 24.0 3.0 21 12.1 SSE 9 11 5 6 1011.9 1010.7 0.0
04/06:00pm 28.6 25.3 2.7 19 13.0 SE 9 13 5 7 1011.7 1010.5 0.0
04/05:30pm 30.6 27.0 2.8 17 14.2 SE 11 15 6 8 1011.5 1010.3 0.0
04/05:00pm 31.5 28.2 2.7 16 14.8 SE 9 20 5 11 1011.2 1010.0 0.0
04/04:30pm 31.9 28.2 2.1 15 15.2 S 11 15 6 8 1011.1 1009.9 0.0
04/04:00pm 32.1 28.4 2.2 15 15.3 SE 11 17 6 9 1010.9 1009.7 0.0
04/03:30pm 32.2 28.6 3.2 16 15.0 E 11 15 6 8 1010.9 1009.7 0.0
04/03:00pm 32.3 28.2 4.2 17 14.8 SE 15 20 8 11 1011.2 1010.0 0.0
04/02:30pm 32.5 30.1 4.3 17 14.9 SW 6 19 3 10 1011.5 1010.3 0.0
04/02:00pm 31.8 28.1 4.6 18 14.4 E 13 20 7 11 1011.9 1010.7 0.0
04/01:30pm 31.2 28.0 4.9 19 14.0 SSE 11 20 6 11 1012.4 1011.2 0.0
04/01:00pm 30.3 26.7 4.9 20 13.4 SE 13 20 7 11 1012.9 1011.7 0.0
04/12:30pm 30.3 26.8 5.6 21 13.2 E 13 22 7 12 1013.5 1012.2 0.0
04/12:00pm 29.4 26.0 6.1 23 12.5 E 13 24 7 13 1014.0 1012.8 0.0
04/11:30am 29.3 25.3 6.7 24 12.2 E 17 26 9 14 1014.5 1013.3 0.0
04/11:00am 28.9 25.1 7.5 26 11.7 E 17 26 9 14 1015.0 1013.8 0.0
04/10:30am 28.6 24.5 7.8 27 11.4 E 19 26 10 14 1015.3 1014.1 0.0
04/10:00am 27.7 23.7 8.1 29 10.8 E 19 28 10 15 1015.4 1014.2 0.0
04/09:30am 26.8 23.4 7.8 30 10.3 ENE 15 26 8 14 1015.5 1014.3 0.0
04/09:00am 24.9 21.9 7.5 33 9.3 ENE 13 20 7 11 1015.4 1014.2 0.0

Other Formats:

Comma delimited format used in spreadsheet applications
http://www.bom.gov.au/fwo/IDQ60801/IDQ60801.94343.axf

JavaScript Object Notation format (JSON) in row-major order
http://www.bom.gov.au/fwo/IDQ60801/IDQ60801.94343.json